createdAt,value
2019-03-24T05:31:07.490Z,99.90
2019-03-24T05:33:37.076Z,99.90
2019-03-24T05:36:06.720Z,99.90
2019-03-24T05:38:36.262Z,99.90
2019-03-24T05:41:05.908Z,99.90
2019-03-24T05:43:35.588Z,99.90
2019-03-24T05:46:05.126Z,99.90
2019-03-24T05:48:35.000Z,99.90
2019-03-24T05:51:04.515Z,99.90
2019-03-24T05:53:34.089Z,99.90
2019-03-24T05:56:03.759Z,99.90
2019-03-24T05:58:33.299Z,99.90
2019-03-24T06:01:02.729Z,99.90
2019-03-24T06:03:32.230Z,99.90
2019-03-24T06:06:01.838Z,99.90
2019-03-24T06:08:31.450Z,99.90
2019-03-24T06:11:00.956Z,99.90
2019-03-24T06:13:30.451Z,99.90
2019-03-24T06:16:00.071Z,99.90
2019-03-24T06:18:29.583Z,99.90
2019-03-24T06:20:59.220Z,99.90
2019-03-24T06:23:28.754Z,99.90
2019-03-24T06:25:58.226Z,99.90
2019-03-24T06:28:27.871Z,99.90
2019-03-24T06:30:57.543Z,99.90
2019-03-24T06:33:27.078Z,99.90
2019-03-24T06:35:56.580Z,99.90
2019-03-24T06:38:26.170Z,99.90
2019-03-24T06:40:55.758Z,99.90
2019-03-24T06:43:25.342Z,99.90
2019-03-24T06:45:55.018Z,99.90
2019-03-24T06:48:24.586Z,99.90
2019-03-24T06:50:54.309Z,99.90
2019-03-24T06:53:23.929Z,99.90
2019-03-24T06:55:53.574Z,99.90
2019-03-24T06:58:23.179Z,99.90
2019-03-24T07:00:53.212Z,99.90
2019-03-24T07:03:22.757Z,99.90
2019-03-24T07:05:52.370Z,99.90
2019-03-24T07:08:21.871Z,99.90
2019-03-24T07:10:51.539Z,99.90
2019-03-24T07:13:21.040Z,99.90
2019-03-24T07:15:50.743Z,99.90
2019-03-24T07:18:20.197Z,99.90
2019-03-24T07:20:49.684Z,99.90
2019-03-24T07:23:19.431Z,99.90
2019-03-24T07:25:49.010Z,99.90
2019-03-24T07:28:18.555Z,99.90
2019-03-24T07:30:48.669Z,99.90
2019-03-24T07:33:18.701Z,99.80
2019-03-24T07:35:48.737Z,99.10
2019-03-24T07:38:18.906Z,98.60
2019-03-24T07:40:48.480Z,98.00
2019-03-24T07:43:18.307Z,96.90
2019-03-24T07:45:48.420Z,97.30
2019-03-24T07:48:20.062Z,96.10
2019-03-24T07:50:49.597Z,95.40
2019-03-24T07:53:19.136Z,95.00
2019-03-24T07:55:48.778Z,94.30
2019-03-24T07:58:18.448Z,94.60
2019-03-24T08:00:48.918Z,93.30
2019-03-24T08:03:23.812Z,93.40
2019-03-24T08:05:53.450Z,92.60
2019-03-24T08:08:23.014Z,91.40
2019-03-24T08:10:52.785Z,90.50
2019-03-24T08:13:22.419Z,90.60
2019-03-24T08:15:51.974Z,89.50
2019-03-24T08:18:29.499Z,87.80
2019-03-24T08:20:52.970Z,88.50
2019-03-24T08:23:22.431Z,88.70
2019-03-24T08:25:51.894Z,86.90
2019-03-24T08:28:23.178Z,85.30
2019-03-24T08:30:52.971Z,83.90
2019-03-24T08:33:22.669Z,83.20
2019-03-24T08:35:52.208Z,83.20
2019-03-24T08:38:21.831Z,82.50
2019-03-24T08:40:51.472Z,82.50
2019-03-24T08:43:21.009Z,78.10
2019-03-24T08:45:50.470Z,79.40
2019-03-24T08:48:20.072Z,77.30
2019-03-24T08:50:49.609Z,77.50
2019-03-24T08:53:19.276Z,75.20
2019-03-24T08:55:48.959Z,76.40
2019-03-24T08:58:18.508Z,73.20
2019-03-24T09:00:48.047Z,73.90
2019-03-24T09:03:17.570Z,73.10
2019-03-24T09:05:47.082Z,73.40
2019-03-24T09:08:16.739Z,71.40
2019-03-24T09:10:46.307Z,70.00
2019-03-24T09:13:16.005Z,68.30
2019-03-24T09:15:45.594Z,67.10
2019-03-24T09:18:15.334Z,66.00
2019-03-24T09:20:44.919Z,68.20
2019-03-24T09:23:14.454Z,65.80
2019-03-24T09:25:44.018Z,65.90
2019-03-24T09:28:13.660Z,66.50
2019-03-24T09:30:43.225Z,64.90
2019-03-24T09:33:12.754Z,65.10
2019-03-24T09:35:42.388Z,64.90
2019-03-24T09:38:12.146Z,65.10
2019-03-24T09:40:41.691Z,63.60
2019-03-24T09:43:11.532Z,64.10
2019-03-24T09:45:41.086Z,62.60
2019-03-24T09:48:10.615Z,62.80
2019-03-24T09:50:40.286Z,62.40
2019-03-24T09:53:09.805Z,61.90
2019-03-24T09:55:39.466Z,58.50
2019-03-24T09:58:08.985Z,59.20
2019-03-24T10:00:38.574Z,58.00
2019-03-24T10:03:08.186Z,57.70
2019-03-24T10:05:37.817Z,56.80
2019-03-24T10:08:07.475Z,59.00
2019-03-24T10:10:43.486Z,59.70
2019-03-24T10:13:13.418Z,58.70
2019-03-24T10:15:42.955Z,57.20
2019-03-24T10:18:12.459Z,57.20
2019-03-24T10:20:42.022Z,55.90
2019-03-24T10:23:12.672Z,54.10
2019-03-24T10:25:42.134Z,55.90
2019-03-24T10:28:12.618Z,54.60
2019-03-24T10:30:42.363Z,53.00
2019-03-24T10:33:13.117Z,54.10
2019-03-24T10:35:42.615Z,55.60
2019-03-24T10:38:12.366Z,53.00
2019-03-24T10:40:42.091Z,51.50
2019-03-24T10:43:11.694Z,51.90
2019-03-24T10:45:41.362Z,51.50
2019-03-24T10:48:10.833Z,53.00
2019-03-24T10:50:40.435Z,51.30
2019-03-24T10:53:10.024Z,52.10
2019-03-24T10:55:39.719Z,51.20
2019-03-24T10:58:09.238Z,49.10
2019-03-24T11:00:40.550Z,48.60
2019-03-24T11:03:10.196Z,47.30
2019-03-24T11:05:39.938Z,46.90
2019-03-24T11:08:09.735Z,47.50
2019-03-24T11:10:39.387Z,48.30
2019-03-24T11:13:09.007Z,48.30
2019-03-24T11:15:38.771Z,48.80
2019-03-24T11:18:08.373Z,47.50
2019-03-24T11:20:37.951Z,49.40
2019-03-24T11:23:07.563Z,48.60
2019-03-24T11:25:37.251Z,47.60
2019-03-24T11:28:06.861Z,47.00
2019-03-24T11:30:36.409Z,47.90
2019-03-24T11:33:05.999Z,47.90
2019-03-24T11:35:35.650Z,47.40
2019-03-24T11:38:05.291Z,48.20
2019-03-24T11:40:34.914Z,47.50
2019-03-24T11:43:04.621Z,47.90
2019-03-24T11:45:34.263Z,48.40
2019-03-24T11:48:03.926Z,45.80
2019-03-24T11:50:33.551Z,48.80
2019-03-24T11:53:03.087Z,45.60
2019-03-24T11:55:32.699Z,44.80
2019-03-24T11:58:06.067Z,44.40
2019-03-24T12:00:38.976Z,43.20
2019-03-24T12:03:08.740Z,46.00
2019-03-24T12:05:38.413Z,43.80
2019-03-24T12:08:08.382Z,45.00
2019-03-24T12:10:38.222Z,42.90
2019-03-24T12:13:07.955Z,44.60
2019-03-24T12:15:37.600Z,44.30
2019-03-24T12:18:07.306Z,45.40
2019-03-24T12:20:36.875Z,46.00
2019-03-24T12:23:06.585Z,45.60
2019-03-24T12:25:36.369Z,45.10
2019-03-24T12:28:06.043Z,45.50
2019-03-24T12:30:35.662Z,45.00
2019-03-24T12:33:05.303Z,43.50
2019-03-24T12:35:34.925Z,43.60
2019-03-24T12:38:04.555Z,43.90
2019-03-24T12:40:34.170Z,43.10
2019-03-24T12:43:03.846Z,45.90
2019-03-24T12:45:33.759Z,44.30
2019-03-24T12:48:03.557Z,44.30
2019-03-24T12:50:33.171Z,43.40
2019-03-24T12:53:02.850Z,42.60
2019-03-24T12:55:32.358Z,42.90
2019-03-24T12:58:01.824Z,43.20
2019-03-24T13:00:39.095Z,44.30
2019-03-24T13:03:08.812Z,43.70
2019-03-24T13:05:38.611Z,43.90
2019-03-24T13:08:15.711Z,42.30
2019-03-24T13:10:45.943Z,42.90
2019-03-24T13:13:15.562Z,44.10
2019-03-24T13:15:45.260Z,43.20
2019-03-24T13:18:14.854Z,43.70
2019-03-24T13:20:44.658Z,44.50
2019-03-24T13:23:14.282Z,44.00
2019-03-24T13:25:43.967Z,43.40
2019-03-24T13:28:13.555Z,46.50
2019-03-24T13:30:43.179Z,45.60
2019-03-24T13:33:12.747Z,44.50
2019-03-24T13:35:42.782Z,44.60
2019-03-24T13:38:12.403Z,43.20
2019-03-24T13:40:42.124Z,42.90
2019-03-24T13:43:11.889Z,43.30
2019-03-24T13:45:41.513Z,42.80
2019-03-24T13:48:11.069Z,44.40
2019-03-24T13:50:40.675Z,43.70
2019-03-24T13:53:10.378Z,43.40
2019-03-24T13:55:40.028Z,44.40
2019-03-24T13:58:13.815Z,43.50
2019-03-24T14:00:43.481Z,44.60
2019-03-24T14:03:12.987Z,45.40
2019-03-24T14:05:42.783Z,44.30
2019-03-24T14:08:12.555Z,44.90
2019-03-24T14:10:42.346Z,45.60
2019-03-24T14:13:12.091Z,45.10
2019-03-24T14:15:43.032Z,45.30
2019-03-24T14:18:12.462Z,43.40
2019-03-24T14:20:43.746Z,44.60
2019-03-24T14:23:13.699Z,44.70
2019-03-24T14:25:43.523Z,44.80
2019-03-24T14:28:13.192Z,45.00
2019-03-24T14:30:44.518Z,44.20
2019-03-24T14:33:14.727Z,44.20
2019-03-24T14:35:44.555Z,43.40
2019-03-24T14:38:14.290Z,43.10
2019-03-24T14:40:43.866Z,44.00
2019-03-24T14:43:20.215Z,45.20
2019-03-24T14:45:49.462Z,46.00
2019-03-24T14:48:19.013Z,45.40
2019-03-24T14:50:54.349Z,45.50
2019-03-24T14:53:19.847Z,44.80
2019-03-24T14:55:49.395Z,44.80
2019-03-24T14:58:18.897Z,46.50
2019-03-24T15:00:48.697Z,47.60
2019-03-24T15:03:18.415Z,47.20
2019-03-24T15:05:47.874Z,47.50
2019-03-24T15:08:17.688Z,46.80
2019-03-24T15:10:47.486Z,46.60
2019-03-24T15:13:17.022Z,46.70
2019-03-24T15:15:46.571Z,47.00
2019-03-24T15:18:16.173Z,46.80
2019-03-24T15:20:45.725Z,47.00
2019-03-24T15:23:15.170Z,46.90
2019-03-24T15:25:44.834Z,47.40
2019-03-24T15:28:14.298Z,47.80
2019-03-24T15:30:43.927Z,47.40
2019-03-24T15:33:13.678Z,47.80
2019-03-24T15:35:43.442Z,47.90
2019-03-24T15:38:13.343Z,48.80
2019-03-24T15:40:43.572Z,48.90
2019-03-24T15:43:13.125Z,49.90
2019-03-24T15:45:43.151Z,51.30
2019-03-24T15:48:14.430Z,50.90
2019-03-24T15:50:46.661Z,51.80
2019-03-24T15:53:16.673Z,51.30
2019-03-24T15:55:46.608Z,52.20
2019-03-24T15:58:16.563Z,52.50
2019-03-24T16:00:50.965Z,53.30
2019-03-24T16:03:21.233Z,53.50
2019-03-24T16:05:51.204Z,54.60
2019-03-24T16:08:21.334Z,54.80
2019-03-24T16:10:51.539Z,55.90
2019-03-24T16:13:21.523Z,56.50
2019-03-24T16:15:51.500Z,56.80
2019-03-24T16:18:23.266Z,55.80
2019-03-24T16:20:53.310Z,57.20
2019-03-24T16:23:23.334Z,57.00
2019-03-24T16:25:55.676Z,56.80
2019-03-24T16:28:25.697Z,57.80
2019-03-24T16:30:55.315Z,58.10
2019-03-24T16:33:24.993Z,57.50
2019-03-24T16:35:54.570Z,59.00
2019-03-24T16:38:24.193Z,58.70
2019-03-24T16:40:53.857Z,59.30
2019-03-24T16:43:23.433Z,59.20
2019-03-24T16:45:53.037Z,60.30
2019-03-24T16:48:22.581Z,60.50
2019-03-24T16:50:52.038Z,61.00
2019-03-24T16:53:21.660Z,61.60
2019-03-24T16:55:51.153Z,61.60
2019-03-24T16:58:21.313Z,62.20
2019-03-24T17:00:50.786Z,62.70
2019-03-24T17:03:20.775Z,62.00
2019-03-24T17:05:50.603Z,62.60
2019-03-24T17:08:20.435Z,63.10
2019-03-24T17:10:50.362Z,63.20
2019-03-24T17:13:20.412Z,64.10
2019-03-24T17:15:50.512Z,64.60
2019-03-24T17:18:20.445Z,65.60
2019-03-24T17:20:50.879Z,65.00
2019-03-24T17:23:20.957Z,65.00
2019-03-24T17:25:51.275Z,65.90
2019-03-24T17:28:20.995Z,66.90
2019-03-24T17:30:51.151Z,65.70
2019-03-24T17:33:20.855Z,65.80
2019-03-24T17:35:50.639Z,65.90
2019-03-24T17:38:20.260Z,66.60
2019-03-24T17:40:49.904Z,66.70
2019-03-24T17:43:19.450Z,66.60
2019-03-24T17:45:48.990Z,67.30
2019-03-24T17:48:18.659Z,67.70
2019-03-24T17:50:48.191Z,68.40
2019-03-24T17:53:17.637Z,69.10
2019-03-24T17:55:47.319Z,69.50
2019-03-24T17:58:16.939Z,70.10
2019-03-24T18:00:52.706Z,71.00
2019-03-24T18:03:22.395Z,71.80
2019-03-24T18:05:51.975Z,72.50
2019-03-24T18:08:21.665Z,73.30
2019-03-24T18:10:51.234Z,74.60
2019-03-24T18:13:20.717Z,76.40
2019-03-24T18:15:50.359Z,77.50
2019-03-24T18:18:19.931Z,78.00
2019-03-24T18:20:49.569Z,79.40
2019-03-24T18:23:19.042Z,80.10
2019-03-24T18:25:48.687Z,80.30
2019-03-24T18:28:18.307Z,81.50
2019-03-24T18:30:47.838Z,82.60
2019-03-24T18:33:17.385Z,83.40
2019-03-24T18:35:46.831Z,85.20
2019-03-24T18:38:16.319Z,86.70
2019-03-24T18:40:45.800Z,88.00
2019-03-24T18:43:15.339Z,88.90
2019-03-24T18:45:44.917Z,90.10
2019-03-24T18:48:14.548Z,90.90
2019-03-24T18:50:44.188Z,91.10
2019-03-24T18:53:13.802Z,91.70
2019-03-24T18:55:43.582Z,92.00
2019-03-24T18:58:13.483Z,92.30
2019-03-24T19:00:43.057Z,92.60
2019-03-24T19:03:12.637Z,92.50
2019-03-24T19:05:42.307Z,91.90
2019-03-24T19:08:12.279Z,91.20
2019-03-24T19:10:42.432Z,89.40
2019-03-24T19:13:12.013Z,89.20
2019-03-24T19:15:41.815Z,89.40
2019-03-24T19:18:11.535Z,89.80
2019-03-24T19:20:41.127Z,89.70
2019-03-24T19:23:10.892Z,90.00
2019-03-24T19:25:40.559Z,90.20
2019-03-24T19:28:10.098Z,90.50
2019-03-24T19:30:40.522Z,90.70
2019-03-24T19:33:10.274Z,90.50
2019-03-24T19:35:40.011Z,91.10
2019-03-24T19:38:09.775Z,90.70
2019-03-24T19:40:39.498Z,90.70
2019-03-24T19:43:09.189Z,90.80
2019-03-24T19:45:39.311Z,91.20
2019-03-24T19:48:08.932Z,91.00
2019-03-24T19:50:38.719Z,91.10
2019-03-24T19:53:08.495Z,90.80
2019-03-24T19:55:38.636Z,91.00
2019-03-24T19:58:08.236Z,91.10
2019-03-24T20:00:37.984Z,91.30
2019-03-24T20:03:07.656Z,91.40
2019-03-24T20:05:37.566Z,91.30
2019-03-24T20:08:07.297Z,91.50
2019-03-24T20:10:37.147Z,91.60
2019-03-24T20:13:06.815Z,91.90
2019-03-24T20:15:36.415Z,92.50
2019-03-24T20:18:06.173Z,92.70
2019-03-24T20:20:35.810Z,92.70
2019-03-24T20:23:05.538Z,93.20
2019-03-24T20:25:35.192Z,93.60
2019-03-24T20:28:06.502Z,93.90
2019-03-24T20:30:36.121Z,94.40
2019-03-24T20:33:05.975Z,94.50
2019-03-24T20:35:35.647Z,95.20
2019-03-24T20:38:05.366Z,96.10
2019-03-24T20:40:34.854Z,96.30
2019-03-24T20:43:04.430Z,96.90
2019-03-24T20:45:34.072Z,97.50
2019-03-24T20:48:03.667Z,97.90
2019-03-24T20:50:33.369Z,98.30
2019-03-24T20:53:05.735Z,98.80
2019-03-24T20:55:34.548Z,99.30
2019-03-24T20:58:04.219Z,99.80
2019-03-24T21:00:37.515Z,99.90
2019-03-24T21:03:08.487Z,99.90
2019-03-24T21:05:38.357Z,99.90
2019-03-24T21:08:08.006Z,99.90
2019-03-24T21:10:37.516Z,99.90
2019-03-24T21:13:07.290Z,99.90
2019-03-24T21:15:36.979Z,99.90
2019-03-24T21:18:06.686Z,99.90
2019-03-24T21:20:36.323Z,99.90
2019-03-24T21:23:06.175Z,99.90
2019-03-24T21:25:35.850Z,99.90
2019-03-24T21:28:05.466Z,99.90
2019-03-24T21:30:39.666Z,99.90
2019-03-24T21:33:09.275Z,99.90
2019-03-24T21:35:38.953Z,99.90
2019-03-24T21:38:08.621Z,99.90
2019-03-24T21:40:38.219Z,99.90
2019-03-24T21:43:07.681Z,99.90
2019-03-24T21:45:37.231Z,99.90
2019-03-24T21:48:06.839Z,99.90
2019-03-24T21:50:36.464Z,99.90
2019-03-24T21:53:06.425Z,99.90
2019-03-24T21:55:38.058Z,99.90
2019-03-24T21:58:07.714Z,99.90
2019-03-24T22:00:38.094Z,99.90
2019-03-24T22:03:08.479Z,99.90
2019-03-24T22:05:38.188Z,99.90
2019-03-24T22:08:07.881Z,99.90
2019-03-24T22:10:37.471Z,99.90
2019-03-24T22:13:07.338Z,99.90
2019-03-24T22:15:36.936Z,99.90
2019-03-24T22:18:06.949Z,99.90
2019-03-24T22:20:48.005Z,99.90
2019-03-24T22:23:07.892Z,99.90
2019-03-24T22:25:37.499Z,99.90
2019-03-24T22:28:07.033Z,99.90
2019-03-24T22:30:36.791Z,99.90
2019-03-24T22:33:06.498Z,99.90
2019-03-24T22:35:36.014Z,99.90
2019-03-24T22:38:05.681Z,99.90
2019-03-24T22:40:35.311Z,99.90
2019-03-24T22:43:04.990Z,99.90
2019-03-24T22:45:34.620Z,99.90
2019-03-24T22:48:04.246Z,99.90
2019-03-24T22:50:33.752Z,99.90
2019-03-24T22:53:03.270Z,99.90
2019-03-24T22:55:32.727Z,99.90
2019-03-24T22:58:02.271Z,99.90
2019-03-24T23:00:49.567Z,99.90
2019-03-24T23:03:19.143Z,99.90
2019-03-24T23:05:48.790Z,99.90
2019-03-24T23:08:18.399Z,99.90
2019-03-24T23:10:47.985Z,99.90
2019-03-24T23:13:17.642Z,99.90
2019-03-24T23:15:47.282Z,99.90
2019-03-24T23:18:16.734Z,99.90
2019-03-24T23:20:46.462Z,99.90
2019-03-24T23:23:16.180Z,99.90
2019-03-24T23:25:45.773Z,99.90
2019-03-24T23:28:15.401Z,99.90
